Time;durP1;ratioP1;P1;durP2;ratioP2;P2;SDS_P1;SDS_P2;PMS_P1;PMS_P2;Temp;Humidity;BMP_temperature;BMP_pressure;BME280_temperature;BME280_humidity;BME280_pressure;Samples;Min_cycle;Max_cycle;Signal;HPM_P1;HPM_P2
2021/01/10 00:00:31;;;;;;;14.10;12.33;;;10.60;97.00;;;11.89;49.56;102007.13;4902285;28;98880;-59
2021/01/10 00:02:57;;;;;;;17.03;12.93;;;10.50;97.10;;;11.82;49.44;102005.50;4907507;28;97670;-60
2021/01/10 00:05:42;;;;;;;10.33;8.60;;;10.40;97.00;;;11.85;49.86;102002.78;4924060;28;96906;-65
2021/01/10 00:08:09;;;;;;;16.37;14.37;;;10.40;98.10;;;11.89;49.63;102001.84;4924651;28;97680;-63
2021/01/10 00:10:34;;;;;;;12.17;10.87;;;10.50;97.50;;;11.88;49.20;101998.31;4912190;28;97899;-64
2021/01/10 00:13:03;;;;;;;11.67;9.83;;;10.50;97.40;;;11.95;49.67;102006.13;4915627;28;98418;-58
2021/01/10 00:15:29;;;;;;;12.50;10.57;;;10.60;97.80;;;11.98;49.75;102006.94;4914174;28;99874;-56
2021/01/10 00:17:56;;;;;;;11.77;10.53;;;10.60;97.80;;;12.06;49.54;102007.66;4897097;28;99538;-56
2021/01/10 00:20:22;;;;;;;25.97;21.00;;;10.80;97.70;;;12.08;49.34;102008.50;4913626;28;98432;-58
2021/01/10 00:22:56;;;;;;;20.73;16.90;;;10.80;96.90;;;12.01;48.55;102006.88;4903318;28;96951;-57
2021/01/10 00:25:22;;;;;;;19.37;15.67;;;10.70;96.30;;;11.95;49.11;102014.06;4908520;28;97099;-57
2021/01/10 00:27:50;;;;;;;15.70;13.13;;;10.50;96.80;;;11.84;49.48;102004.56;4904481;28;101072;-58
2021/01/10 00:30:19;;;;;;;31.43;21.70;;;10.40;97.20;;;11.86;49.33;102012.47;4906627;28;97631;-56
2021/01/10 00:32:54;;;;;;;27.67;21.13;;;10.40;97.20;;;11.84;49.71;101998.41;4904132;28;98288;-55
2021/01/10 00:35:21;;;;;;;22.83;18.03;;;10.40;97.20;;;11.80;49.09;102002.00;4925588;28;99151;-57
2021/01/10 00:37:52;;;;;;;28.27;22.67;;;10.40;97.10;;;11.57;48.98;102011.22;4888033;28;100476;-59
2021/01/10 00:40:19;;;;;;;29.43;21.57;;;10.20;97.10;;;11.76;48.97;102005.59;4889704;28;102690;-61
2021/01/10 00:42:46;;;;;;;27.40;20.97;;;10.50;97.40;;;11.73;49.72;102006.53;4906132;28;96983;-59
2021/01/10 00:45:13;;;;;;;27.23;20.77;;;10.50;97.20;;;11.72;49.93;102003.91;4906539;28;98590;-63
2021/01/10 00:47:40;;;;;;;20.87;17.67;;;10.40;97.10;;;11.62;49.92;101998.78;4906082;28;99235;-60
2021/01/10 00:50:07;;;;;;;22.73;18.93;;;10.40;97.00;;;11.59;50.36;102008.56;4909265;28;98091;-60
2021/01/10 00:52:34;;;;;;;14.37;10.93;;;10.30;97.80;;;11.65;49.71;102012.84;4911693;28;98986;-63
2021/01/10 00:55:00;;;;;;;17.13;14.40;;;10.40;97.20;;;11.46;49.57;102007.91;4887761;28;97789;-61
2021/01/10 00:57:26;;;;;;;26.97;20.83;;;10.20;97.00;;;11.41;48.25;102008.88;4909739;28;100978;-61
2021/01/10 00:59:52;;;;;;;28.07;21.60;;;10.10;97.40;;;11.24;49.92;102009.16;4915354;28;109111;-61
2021/01/10 01:02:18;;;;;;;28.10;22.43;;;10.00;97.20;;;10.91;48.31;102000.91;4906908;28;98804;-58
2021/01/10 01:04:45;;;;;;;27.17;22.07;;;9.80;97.20;;;10.86;50.26;102007.16;4900331;28;98263;-63
2021/01/10 01:07:12;;;;;;;27.13;21.63;;;9.70;97.70;;;10.57;49.27;102012.88;4906328;28;100615;-63
2021/01/10 01:09:37;;;;;;;29.43;22.23;;;9.50;97.70;;;10.65;52.29;102017.13;4914747;28;100072;-60
2021/01/10 01:12:05;;;;;;;28.40;21.10;;;9.50;98.30;;;10.71;51.53;102016.19;4911230;28;98181;-63
2021/01/10 01:14:31;;;;;;;22.37;18.67;;;9.50;98.30;;;10.63;52.19;102012.78;4897369;28;100974;-62
2021/01/10 01:16:57;;;;;;;23.13;18.63;;;9.40;98.40;;;10.79;52.12;102016.91;4896331;28;97558;-60
2021/01/10 01:19:23;;;;;;;24.90;20.10;;;9.50;98.80;;;10.57;51.73;102016.38;4899721;28;106941;-63
2021/01/10 01:21:52;;;;;;;24.57;19.80;;;9.40;98.70;;;10.53;50.71;102022.56;4911878;28;97448;-61
2021/01/10 01:24:21;;;;;;;17.73;14.30;;;9.30;99.00;;;10.52;53.04;102025.22;4895882;28;98379;-62
2021/01/10 01:26:47;;;;;;;27.87;22.10;;;9.20;99.50;;;10.32;52.75;102023.75;4912230;28;99599;-63
2021/01/10 01:29:14;;;;;;;32.80;23.63;;;9.10;99.60;;;10.48;51.93;102031.47;4889093;28;98223;-60
2021/01/10 01:31:40;;;;;;;25.40;19.73;;;9.30;99.90;;;10.68;52.68;102027.63;4901704;28;96929;-61
2021/01/10 01:34:06;;;;;;;27.10;22.27;;;9.50;99.40;;;10.57;49.79;102029.56;4926602;28;98656;-60
2021/01/10 01:36:32;;;;;;;31.97;24.17;;;9.50;98.70;;;10.27;50.47;102025.56;4897601;28;99934;-62
2021/01/10 01:39:00;;;;;;;36.93;25.97;;;9.20;98.80;;;10.04;51.29;102024.94;4908054;28;98325;-60
2021/01/10 01:41:28;;;;;;;32.03;25.07;;;9.00;99.40;;;10.10;53.21;102016.94;4913619;28;97411;-58
2021/01/10 01:43:54;;;;;;;35.80;25.20;;;8.90;99.50;;;10.25;53.42;102022.06;4911135;28;97063;-56
2021/01/10 01:46:24;;;;;;;24.87;19.53;;;9.10;99.60;;;10.36;53.33;102027.22;4898507;28;98568;-58
2021/01/10 01:48:50;;;;;;;30.23;22.47;;;9.10;99.30;;;10.27;52.22;102022.94;4911474;28;98509;-56
2021/01/10 01:51:18;;;;;;;32.70;23.43;;;9.10;99.00;;;10.12;50.81;102030.97;4898653;28;98188;-57
2021/01/10 01:53:44;;;;;;;21.23;14.57;;;9.00;99.20;;;10.11;53.77;102034.50;4908825;28;97160;-56
2021/01/10 01:56:10;;;;;;;15.63;12.70;;;8.90;99.40;;;10.06;51.80;102031.94;4887404;28;97552;-57
2021/01/10 01:58:36;;;;;;;29.87;20.13;;;8.90;99.70;;;10.18;53.47;102041.47;4906436;28;97527;-60
2021/01/10 02:01:02;;;;;;;34.80;22.40;;;9.00;99.40;;;10.31;52.03;102042.22;4906334;28;97585;-63
2021/01/10 02:03:41;;;;;;;38.27;25.93;;;9.10;99.90;;;10.24;53.48;102041.41;4925293;28;98537;-61
2021/01/10 02:06:15;;;;;;;34.83;23.73;;;9.00;99.10;;;10.00;51.07;102044.34;4905339;28;101951;-62
2021/01/10 02:08:41;;;;;;;30.30;21.80;;;8.90;99.40;;;10.27;53.11;102040.50;4925975;28;98067;-62
2021/01/10 02:11:09;;;;;;;38.73;24.30;;;9.00;99.00;;;10.47;53.29;102037.63;4928631;28;98958;-60
2021/01/10 02:13:36;;;;;;;34.23;22.53;;;9.20;99.30;;;10.29;51.30;102036.97;4889771;28;99783;-58
2021/01/10 02:16:03;;;;;;;42.37;26.43;;;9.10;98.70;;;10.24;51.72;102038.78;4898754;28;99751;-57
2021/01/10 02:18:32;;;;;;;45.03;27.83;;;9.00;99.20;;;10.16;51.70;102042.38;4900608;28;101068;-58
2021/01/10 02:21:05;;;;;;;46.83;29.40;;;9.00;98.90;;;9.93;50.71;102035.59;4911919;28;97529;-57
2021/01/10 02:23:32;;;;;;;42.80;27.63;;;8.90;98.80;;;9.82;53.39;102033.06;4892223;28;97862;-58
2021/01/10 02:26:00;;;;;;;45.37;28.17;;;8.80;99.30;;;10.00;51.51;102039.06;4909413;28;99757;-60
2021/01/10 02:28:30;;;;;;;48.57;29.57;;;8.90;99.00;;;10.00;53.26;102046.97;4889894;28;100159;-60
2021/01/10 02:30:57;;;;;;;48.20;29.13;;;8.90;99.10;;;10.28;53.88;102031.72;4909725;28;98366;-59
2021/01/10 02:33:41;;;;;;;46.03;27.97;;;9.10;99.60;;;10.39;52.88;102035.94;4905812;28;97329;-59
2021/01/10 02:36:35;;;;;;;50.37;29.13;;;9.30;98.90;;;10.49;52.64;102035.84;4912360;28;100446;-61
2021/01/10 02:39:09;;;;;;;50.20;30.43;;;9.30;99.00;;;10.45;52.54;102029.72;4917269;28;102775;-62
2021/01/10 02:41:50;;;;;;;53.03;30.00;;;9.20;98.80;;;10.50;51.96;102027.03;4909496;28;98277;-62
2021/01/10 02:44:33;;;;;;;42.77;28.40;;;9.30;98.60;;;10.57;52.52;102026.94;4907357;28;99271;-60
2021/01/10 02:46:59;;;;;;;48.47;29.80;;;9.30;98.70;;;10.50;52.02;102021.75;4907359;28;100677;-62
2021/01/10 02:49:25;;;;;;;50.60;29.60;;;9.30;98.50;;;10.39;51.78;102030.66;4905086;28;98291;-58
2021/01/10 02:51:51;;;;;;;28.23;20.53;;;9.20;98.50;;;10.43;51.89;102023.59;4893982;28;97374;-57
2021/01/10 02:54:19;;;;;;;39.30;25.67;;;9.20;98.30;;;10.49;52.83;102020.00;4906669;28;97854;-58
2021/01/10 02:57:00;;;;;;;21.60;14.33;;;9.10;99.20;;;10.58;53.30;102015.47;4909345;28;97629;-58
2021/01/10 02:59:30;;;;;;;37.50;25.10;;;9.20;99.70;;;10.56;51.98;102011.09;4889700;28;98109;-58
2021/01/10 03:02:01;;;;;;;31.57;20.90;;;9.20;99.10;;;10.48;52.66;102016.50;4908893;28;97953;-58
2021/01/10 03:04:26;;;;;;;24.00;16.73;;;9.00;99.10;;;10.57;52.54;102016.38;4889804;28;97773;-58
2021/01/10 03:06:55;;;;;;;20.07;14.70;;;9.10;99.30;;;10.68;52.23;102016.19;4891741;28;106902;-58
2021/01/10 03:09:22;;;;;;;23.20;15.87;;;9.20;99.30;;;10.67;52.48;102014.47;4904737;28;98698;-58
2021/01/10 03:11:49;;;;;;;36.60;24.07;;;9.20;99.20;;;10.70;52.39;102019.69;4925023;28;98637;-58
2021/01/10 03:14:15;;;;;;;29.83;20.70;;;9.20;99.50;;;10.85;52.28;102019.50;4914300;28;99011;-58
2021/01/10 03:16:43;;;;;;;41.47;26.90;;;9.40;99.40;;;10.88;51.49;102015.94;4902763;28;99673;-59
2021/01/10 03:19:09;;;;;;;33.33;21.77;;;9.50;98.80;;;10.88;50.88;102021.19;4908056;28;102448;-58
2021/01/10 03:21:35;;;;;;;25.83;18.17;;;9.50;98.30;;;10.97;51.88;102008.72;4884519;28;98367;-58
2021/01/10 03:24:01;;;;;;;36.73;24.93;;;9.60;98.90;;;11.00;51.33;102018.38;4909303;28;98080;-58
2021/01/10 03:26:27;;;;;;;38.07;25.53;;;9.60;98.60;;;11.05;51.50;102010.38;4905577;28;97435;-57
2021/01/10 03:28:53;;;;;;;37.83;24.43;;;9.70;98.60;;;10.93;50.93;102009.66;4910241;28;99035;-58
2021/01/10 03:31:19;;;;;;;33.13;22.77;;;9.60;98.30;;;10.89;50.39;102009.75;4918932;28;97487;-55
2021/01/10 03:33:48;;;;;;;37.57;24.27;;;9.60;98.10;;;10.90;50.51;102004.44;4912142;28;99006;-57
2021/01/10 03:36:15;;;;;;;41.10;26.47;;;9.50;98.70;;;10.80;51.29;102005.47;4900841;28;101750;-57
2021/01/10 03:38:42;;;;;;;47.03;30.07;;;9.40;98.90;;;10.91;51.56;101998.25;4892510;28;99816;-58
2021/01/10 03:41:08;;;;;;;29.33;18.90;;;9.50;99.10;;;10.82;51.02;101997.53;4897657;28;98951;-56
2021/01/10 03:43:35;;;;;;;41.07;25.63;;;9.50;98.40;;;10.73;51.08;101998.56;4911112;28;97592;-57
2021/01/10 03:46:02;;;;;;;42.47;28.07;;;9.40;98.60;;;10.72;51.19;101992.41;4899163;28;98318;-58
2021/01/10 03:48:27;;;;;;;39.47;26.53;;;9.30;98.90;;;10.59;51.60;101997.88;4892101;28;101541;-57
2021/01/10 03:50:53;;;;;;;38.50;26.07;;;9.20;98.90;;;10.73;52.38;102003.84;4913023;28;98102;-58
2021/01/10 03:53:19;;;;;;;40.63;27.43;;;9.30;99.20;;;10.84;51.69;101980.75;4900093;28;98179;-58
2021/01/10 03:55:45;;;;;;;45.37;29.83;;;9.50;99.20;;;10.72;52.06;101991.53;4929112;28;99892;-58
2021/01/10 03:58:11;;;;;;;47.17;29.47;;;9.40;99.20;;;10.77;51.53;101983.53;4914698;28;97488;-57
2021/01/10 04:00:37;;;;;;;40.67;26.70;;;9.40;98.80;;;10.86;52.23;101984.28;5045581;22;109819;-58
2021/01/10 04:03:03;;;;;;;44.07;27.60;;;9.50;98.80;;;10.70;52.06;101990.66;4968470;28;108603;-56
2021/01/10 04:05:28;;;;;;;27.17;18.57;;;9.40;98.90;;;10.84;51.77;101988.69;4984110;28;99504;-58
2021/01/10 04:07:54;;;;;;;30.93;21.07;;;9.50;98.80;;;10.71;51.81;101982.75;4969703;28;112223;-61
2021/01/10 04:10:20;;;;;;;36.73;24.47;;;9.40;98.80;;;10.82;51.78;101990.47;4982175;28;97395;-59
2021/01/10 04:12:46;;;;;;;43.57;27.57;;;9.40;99.30;;;10.74;52.05;101987.09;4973116;28;101288;-57
2021/01/10 04:15:13;;;;;;;17.60;12.43;;;9.30;99.40;;;10.98;52.23;101989.31;4981341;28;110643;-60
2021/01/10 04:17:38;;;;;;;19.60;13.37;;;9.60;99.90;;;11.22;51.84;101992.47;4978831;28;100128;-60
2021/01/10 04:20:05;;;;;;;39.33;25.87;;;10.20;99.90;;;10.87;49.90;101983.38;4983882;28;97462;-62
2021/01/10 04:22:31;;;;;;;18.70;12.77;;;9.90;97.60;;;11.17;51.78;101984.63;4982352;28;96959;-61
2021/01/10 04:24:57;;;;;;;14.87;11.37;;;9.90;98.80;;;11.41;51.07;101987.72;4976117;28;102250;-59
2021/01/10 04:27:23;;;;;;;22.37;15.57;;;10.40;99.90;;;11.48;50.28;101990.25;4981755;28;107691;-59
2021/01/10 04:29:48;;;;;;;34.43;22.33;;;10.50;97.40;;;11.25;49.42;101984.47;4970444;28;98869;-62
2021/01/10 04:32:15;;;;;;;42.23;27.60;;;10.20;97.40;;;11.40;50.15;101997.44;4980379;28;97496;-59
2021/01/10 04:34:41;;;;;;;41.53;27.43;;;10.20;97.80;;;11.46;50.16;101999.09;4971921;28;103172;-58
2021/01/10 04:37:07;;;;;;;30.93;21.63;;;10.20;97.60;;;11.29;48.88;102004.69;4981403;28;99233;-61
2021/01/10 04:39:32;;;;;;;34.23;23.00;;;10.10;97.00;;;11.23;49.89;101994.22;4960359;28;99257;-60
2021/01/10 04:41:58;;;;;;;40.17;26.80;;;9.90;97.80;;;11.32;51.13;101994.06;4988751;28;107777;-60
2021/01/10 04:44:25;;;;;;;41.37;28.20;;;9.90;98.80;;;11.30;50.37;101998.50;4958761;28;108954;-58
2021/01/10 04:46:51;;;;;;;42.63;27.43;;;10.00;98.40;;;11.05;49.83;102005.09;4984408;28;100159;-62
2021/01/10 04:49:21;;;;;;;40.23;28.20;;;9.80;97.70;;;10.97;49.18;101995.50;4963420;28;97224;-60
2021/01/10 04:51:49;;;;;;;39.47;26.33;;;9.70;97.80;;;11.06;51.53;101996.28;4965158;28;97359;-60
2021/01/10 04:54:16;;;;;;;43.27;27.43;;;9.70;98.50;;;10.85;48.59;101998.38;4965470;28;113345;-61
2021/01/10 04:56:43;;;;;;;42.63;28.23;;;9.70;97.80;;;10.70;52.20;101998.56;4977488;28;107767;-60
2021/01/10 04:59:10;;;;;;;35.40;25.40;;;9.50;98.80;;;10.90;51.61;102001.81;4979426;28;97407;-59
2021/01/10 05:01:45;;;;;;;35.23;25.33;;;9.70;98.80;;;10.47;50.25;101992.78;4991074;28;98275;-58
2021/01/10 05:04:11;;;;;;;41.13;27.33;;;9.40;98.40;;;10.50;51.54;101990.09;4982290;28;97870;-60
2021/01/10 05:06:37;;;;;;;42.50;26.63;;;9.20;99.20;;;10.68;51.33;101997.72;4972131;28;98148;-61
2021/01/10 05:09:07;;;;;;;44.30;27.33;;;9.40;99.20;;;10.59;51.67;101989.97;4983440;28;97756;-56
2021/01/10 05:11:35;;;;;;;44.83;28.67;;;9.30;99.30;;;10.41;50.26;101986.69;4968746;28;102038;-60
2021/01/10 05:14:01;;;;;;;45.03;29.17;;;9.30;98.80;;;10.60;52.32;101987.31;4981496;28;97537;-59
2021/01/10 05:16:33;;;;;;;39.87;27.43;;;9.40;98.90;;;10.64;51.24;101989.00;4977164;28;100196;-60
2021/01/10 05:19:00;;;;;;;41.73;28.27;;;9.40;98.50;;;10.18;50.34;101983.47;4973723;28;97532;-59
2021/01/10 05:21:26;;;;;;;42.73;27.77;;;9.10;98.30;;;10.52;52.64;101993.56;4976239;28;98030;-59
2021/01/10 05:23:55;;;;;;;31.97;20.60;;;9.20;99.40;;;10.66;52.50;101991.59;4963840;28;99992;-58
2021/01/10 05:26:22;;;;;;;40.03;27.43;;;9.40;98.70;;;10.52;52.94;101985.66;4991559;28;97361;-61
2021/01/10 05:28:49;;;;;;;22.63;17.17;;;9.20;99.10;;;10.69;52.89;101986.28;4980231;28;98294;-58
2021/01/10 05:31:38;;;;;;;23.00;15.23;;;9.30;99.20;;;10.70;51.95;101983.66;4972854;28;105302;-60
2021/01/10 05:34:04;;;;;;;42.43;25.67;;;9.40;98.90;;;10.32;50.18;101976.25;4976023;28;102700;-61
2021/01/10 05:36:33;;;;;;;41.67;26.80;;;9.20;98.50;;;10.60;52.90;101981.16;4964074;28;99143;-61
2021/01/10 05:39:22;;;;;;;35.40;23.93;;;9.20;99.80;;;10.76;51.60;101987.94;4979580;28;97413;-60
2021/01/10 05:41:53;;;;;;;33.80;23.80;;;9.40;99.10;;;10.51;49.79;101981.28;4970349;28;96988;-60
2021/01/10 05:44:20;;;;;;;38.67;26.03;;;9.30;98.20;;;10.50;51.46;101980.41;4985909;28;97383;-61
2021/01/10 05:46:46;;;;;;;40.13;26.70;;;9.20;98.90;;;10.60;52.98;101982.03;4982317;28;99922;-61
2021/01/10 05:49:21;;;;;;;25.93;18.60;;;9.30;99.10;;;10.83;52.09;101994.84;4982131;28;97262;-61
2021/01/10 05:51:48;;;;;;;35.43;25.20;;;9.60;98.40;;;10.74;51.41;101984.47;4979773;28;101134;-57
2021/01/10 05:54:40;;;;;;;34.73;23.93;;;9.50;98.50;;;10.88;52.66;101992.16;4982202;28;100669;-63
2021/01/10 05:57:08;;;;;;;28.27;19.90;;;9.60;99.00;;;10.79;50.02;101992.28;4996691;28;102690;-60
2021/01/10 05:59:44;;;;;;;36.33;23.93;;;9.60;97.60;;;10.78;52.32;101991.44;4985654;28;97505;-60
2021/01/10 06:02:11;;;;;;;33.13;23.33;;;9.40;98.80;;;10.62;49.21;101989.91;4984158;28;98200;-61
2021/01/10 06:04:37;;;;;;;44.23;29.03;;;9.40;97.90;;;10.61;52.73;101988.19;4970292;28;101473;-63
2021/01/10 06:07:04;;;;;;;44.90;28.70;;;9.20;99.40;;;10.78;50.06;101996.72;4976932;28;98287;-59
2021/01/10 06:09:50;;;;;;;45.73;30.50;;;9.50;98.60;;;10.49;51.61;101993.63;4967198;28;97231;-61
2021/01/10 06:12:23;;;;;;;31.87;21.87;;;9.30;98.10;;;10.38;52.25;101986.72;4982855;28;97546;-60
2021/01/10 06:15:09;;;;;;;23.47;17.33;;;9.10;98.50;;;10.52;52.38;101998.84;4957910;28;100559;-61
2021/01/10 06:17:47;;;;;;;36.67;25.33;;;9.20;99.00;;;10.28;51.69;101995.66;5001985;28;97217;-61
2021/01/10 06:20:27;;;;;;;31.30;19.90;;;9.00;98.60;;;10.59;53.10;102004.03;4971292;28;99974;-61
2021/01/10 06:23:04;;;;;;;15.80;11.50;;;9.20;99.90;;;10.97;52.38;102008.72;4987487;28;100095;-58
2021/01/10 06:25:32;;;;;;;22.73;16.03;;;9.90;99.90;;;11.17;51.15;102004.91;4977687;28;98857;-61
2021/01/10 06:28:12;;;;;;;29.67;22.47;;;10.40;98.10;;;11.23;50.52;101996.84;4984840;28;98230;-62
2021/01/10 06:30:53;;;;;;;33.77;23.77;;;10.30;97.30;;;11.15;50.58;102001.41;4959821;28;100276;-61
2021/01/10 06:33:31;;;;;;;40.27;26.10;;;10.00;97.50;;;11.27;51.41;102011.75;4970590;28;97010;-61
2021/01/10 06:36:06;;;;;;;27.03;18.87;;;10.00;98.10;;;11.27;50.22;102001.19;4952270;28;99615;-58
2021/01/10 06:38:37;;;;;;;27.30;18.40;;;10.00;97.40;;;11.25;51.13;102008.25;4987099;28;98873;-61
2021/01/10 06:41:35;;;;;;;30.80;20.27;;;9.90;97.60;;;11.19;50.73;102011.88;4977818;28;101257;-61
2021/01/10 06:44:06;;;;;;;28.60;20.13;;;9.80;97.60;;;11.06;49.63;102012.13;4983898;28;96912;-63
2021/01/10 06:46:32;;;;;;;18.47;13.47;;;9.70;97.80;;;11.12;51.52;102007.59;4980590;28;97864;-61
2021/01/10 06:49:04;;;;;;;16.53;12.33;;;9.70;99.00;;;11.31;51.09;102002.91;4994312;28;96848;-61
2021/01/10 06:51:33;;;;;;;28.40;20.27;;;10.00;98.90;;;11.33;49.98;102001.09;4978429;28;97002;-61
2021/01/10 06:54:06;;;;;;;31.80;21.77;;;10.10;97.80;;;11.21;50.61;102011.88;4966294;28;97438;-62
2021/01/10 06:56:33;;;;;;;20.03;14.10;;;9.90;97.80;;;11.36;50.92;102014.25;4972209;28;97651;-60
2021/01/10 06:59:12;;;;;;;32.57;22.20;;;10.00;98.60;;;11.33;49.52;102001.97;4962554;28;99614;-61
2021/01/10 07:01:52;;;;;;;24.70;17.87;;;10.10;97.20;;;11.35;nan;101995.78;4974682;28;98145;-60
2021/01/10 07:04:23;;;;;;;42.40;27.30;;;10.00;98.00;;;11.30;48.97;102006.44;4995877;28;97708;-61
2021/01/10 07:06:50;;;;;;;19.77;13.97;;;10.00;97.40;;;11.38;50.81;101996.59;4984867;28;98689;-61
2021/01/10 07:09:18;;;;;;;18.90;14.43;;;10.10;98.50;;;11.51;50.74;102006.03;4981113;28;99085;-61
2021/01/10 07:11:45;;;;;;;38.07;26.77;;;10.30;97.70;;;11.38;48.95;101999.22;4977266;28;100535;-58
2021/01/10 07:14:14;;;;;;;19.30;13.60;;;10.20;97.00;;;11.43;50.80;102007.97;4983328;28;97943;-58
2021/01/10 07:16:45;;;;;;;38.90;26.17;;;10.10;97.90;;;11.45;50.34;102011.44;4974314;28;99436;-59
2021/01/10 07:19:14;;;;;;;27.33;20.13;;;10.10;97.70;;;11.47;50.43;102004.34;4980946;28;101433;-58
2021/01/10 07:21:43;;;;;;;31.83;21.57;;;10.10;97.40;;;11.38;49.86;102015.09;4960205;28;97772;-56
2021/01/10 07:24:21;;;;;;;32.70;22.13;;;10.00;97.00;;;11.22;49.71;102013.59;4995630;28;97197;-58
2021/01/10 07:26:50;;;;;;;20.10;14.43;;;9.90;97.20;;;11.33;50.93;102022.22;4978185;28;101490;-57
2021/01/10 07:29:38;;;;;;;45.47;28.27;;;9.90;98.20;;;11.28;49.56;102013.47;4979284;28;97254;-55
2021/01/10 07:32:14;;;;;;;29.00;19.27;;;9.90;97.80;;;11.12;51.01;102019.94;4990968;28;97242;-57
2021/01/10 07:34:46;;;;;;;17.07;11.53;;;9.70;98.10;;;11.31;51.13;102019.63;4966788;28;96922;-57
2021/01/10 07:37:29;;;;;;;40.93;27.80;;;10.00;99.30;;;11.05;48.48;102020.94;4971123;28;103432;-57
2021/01/10 07:39:59;;;;;;;46.77;29.07;;;9.90;97.70;;;10.88;50.55;102026.47;4974347;28;97425;-58
2021/01/10 07:42:33;;;;;;;44.47;28.10;;;9.70;97.90;;;11.05;48.73;102032.38;4957955;28;97114;-57
2021/01/10 07:45:01;;;;;;;44.30;29.27;;;9.90;97.80;;;10.53;49.22;102021.69;4989121;28;97102;-57
2021/01/10 07:47:32;;;;;;;50.67;31.27;;;9.50;98.10;;;10.55;52.69;102033.09;4974261;28;99781;-56
2021/01/10 07:50:07;;;;;;;24.47;16.73;;;9.30;99.20;;;10.88;52.62;102035.28;4985333;28;99521;-56
2021/01/10 07:52:42;;;;;;;26.87;18.17;;;9.60;99.60;;;11.03;51.86;102040.31;4988698;28;97739;-57
2021/01/10 07:55:17;;;;;;;25.93;18.47;;;9.90;98.70;;;11.00;51.76;102035.09;4999372;28;98835;-58
2021/01/10 07:57:51;;;;;;;30.17;19.40;;;9.80;98.30;;;11.06;51.56;102035.88;4976666;28;101861;-58
2021/01/10 08:00:22;;;;;;;50.93;31.03;;;9.80;98.50;;;11.13;51.26;102034.88;4977533;28;98594;-58
2021/01/10 08:02:49;;;;;;;50.47;30.73;;;9.80;98.30;;;11.15;51.69;102035.75;4989976;28;97017;-58
2021/01/10 08:05:21;;;;;;;19.97;14.10;;;9.80;98.40;;;11.38;51.17;102046.78;4978698;28;97974;-62
2021/01/10 08:07:54;;;;;;;42.90;28.70;;;10.30;99.90;;;11.48;50.08;102048.38;4994816;28;100583;-58
2021/01/10 08:10:22;;;;;;;47.53;30.80;;;10.50;97.50;;;11.35;50.46;102044.19;4975107;28;98063;-58
2021/01/10 08:12:48;;;;;;;29.27;19.70;;;10.20;97.70;;;11.40;50.38;102044.97;4983042;28;97473;-58
2021/01/10 08:15:15;;;;;;;40.23;26.40;;;10.20;97.30;;;11.39;50.75;102043.25;4978451;28;97339;-58
2021/01/10 08:17:41;;;;;;;21.20;15.10;;;10.10;97.70;;;11.50;50.82;102041.28;4982594;28;98731;-58
2021/01/10 08:20:08;;;;;;;16.10;11.57;;;10.20;98.10;;;11.67;50.78;102045.41;4982365;28;98907;-58
2021/01/10 08:22:37;;;;;;;14.80;11.53;;;10.50;99.70;;;11.87;50.23;102040.66;4979706;28;97222;-58
2021/01/10 08:25:06;;;;;;;22.27;14.93;;;11.10;98.80;;;12.02;49.47;102040.38;4976940;28;101362;-58
2021/01/10 08:27:32;;;;;;;23.20;16.70;;;11.30;97.00;;;11.98;48.83;102049.25;4984029;28;97681;-57
2021/01/10 08:29:58;;;;;;;53.27;33.40;;;11.10;96.00;;;11.85;48.49;102053.88;4963145;28;98373;-58
2021/01/10 08:32:25;;;;;;;59.83;36.20;;;10.80;96.40;;;11.84;49.23;102057.44;4980576;28;104280;-61
2021/01/10 08:34:54;;;;;;;31.20;21.60;;;10.70;96.80;;;11.62;48.81;102049.00;4962113;28;97554;-58
2021/01/10 08:37:23;;;;;;;43.40;27.27;;;10.40;96.90;;;11.71;49.85;102055.88;4987982;28;98686;-58
2021/01/10 08:40:06;;;;;;;59.53;36.20;;;10.40;97.80;;;11.80;49.82;102057.53;4957752;28;97326;-57
2021/01/10 08:42:33;;;;;;;65.37;37.13;;;10.50;98.10;;;11.75;48.74;102056.72;4983480;28;97716;-58
2021/01/10 08:45:21;;;;;;;40.70;25.80;;;10.60;97.20;;;11.77;49.97;102049.63;4965894;28;97469;-58
2021/01/10 08:47:48;;;;;;;21.83;14.87;;;10.50;97.60;;;11.79;50.03;102047.84;4983611;28;97581;-56
2021/01/10 08:50:15;;;;;;;61.30;35.93;;;10.60;98.60;;;11.79;49.55;102053.16;4972473;28;99804;-58
2021/01/10 08:52:59;;;;;;;35.70;23.23;;;10.60;97.60;;;11.73;49.49;102059.41;4985121;28;96817;-57
2021/01/10 08:55:34;;;;;;;37.53;24.93;;;10.50;97.20;;;11.61;49.13;102063.13;4992468;28;97127;-57
2021/01/10 08:58:01;;;;;;;61.63;34.30;;;10.40;97.10;;;11.71;49.99;102060.28;4964716;28;100574;-57
2021/01/10 09:00:27;;;;;;;48.13;29.53;;;10.50;98.10;;;11.68;49.77;102061.22;4977898;28;99254;-57
2021/01/10 09:02:53;;;;;;;63.53;37.53;;;10.50;97.40;;;11.28;48.63;102059.28;4981374;28;97431;-58
2021/01/10 09:05:27;;;;;;;66.27;38.87;;;10.20;97.30;;;11.34;51.10;102060.94;4985816;28;97371;-57
2021/01/10 09:08:01;;;;;;;47.27;31.47;;;10.10;98.60;;;11.35;50.05;102067.09;4973050;28;99596;-58
2021/01/10 09:10:30;;;;;;;64.90;39.43;;;10.10;97.70;;;11.31;49.91;102071.56;4985298;28;99199;-58
2021/01/10 09:13:04;;;;;;;69.37;41.03;;;10.10;98.20;;;11.30;49.05;102064.56;4981351;28;97303;-56
2021/01/10 09:15:35;;;;;;;60.67;36.83;;;10.10;97.90;;;11.14;50.89;102073.59;4990784;28;97333;-58
2021/01/10 09:18:19;;;;;;;51.13;32.53;;;9.90;98.30;;;11.03;50.46;102071.13;4960868;28;98880;-57
2021/01/10 09:21:01;;;;;;;74.13;38.77;;;9.70;98.70;;;11.12;51.71;102070.09;4970745;28;96862;-58
2021/01/10 09:23:28;;;;;;;45.63;29.43;;;9.80;98.90;;;11.17;50.23;102073.56;4978333;28;96869;-56
2021/01/10 09:25:54;;;;;;;40.63;28.10;;;9.90;98.30;;;11.17;51.14;102070.94;4969347;28;96996;-58
2021/01/10 09:28:21;;;;;;;24.60;16.67;;;9.90;98.60;;;11.19;51.65;102075.28;4975464;28;103190;-56
2021/01/10 09:30:53;;;;;;;63.23;38.77;;;9.80;99.70;;;11.16;49.81;102079.75;4988342;28;99769;-56
2021/01/10 09:33:30;;;;;;;64.47;38.93;;;9.90;98.50;;;11.00;49.04;102082.63;4978846;28;96952;-58
2021/01/10 09:35:59;;;;;;;63.40;39.07;;;9.90;98.20;;;10.94;51.10;102084.47;4983285;28;98240;-57
2021/01/10 09:38:28;;;;;;;33.80;23.77;;;9.70;98.60;;;11.17;51.72;102085.00;4977365;28;97546;-58
2021/01/10 09:41:06;;;;;;;42.83;28.07;;;9.90;98.80;;;10.95;50.85;102079.16;4984153;28;98499;-58
2021/01/10 09:43:53;;;;;;;58.10;34.63;;;9.70;98.80;;;10.87;51.46;102090.75;4981387;28;97361;-58
2021/01/10 09:46:51;;;;;;;64.53;36.53;;;9.60;99.00;;;11.15;51.13;102088.56;4988181;28;99199;-58
2021/01/10 09:49:29;;;;;;;49.93;33.70;;;9.80;98.70;;;10.96;51.41;102085.31;4970108;28;101903;-56
2021/01/10 09:52:01;;;;;;;56.90;37.53;;;9.70;98.50;;;10.67;52.09;102089.22;4981033;28;98214;-58
2021/01/10 09:54:32;;;;;;;39.17;27.43;;;9.60;98.90;;;10.70;50.63;102091.84;4989602;28;97260;-56
2021/01/10 09:57:16;;;;;;;59.63;35.50;;;9.50;98.50;;;10.83;51.57;102089.88;4978100;28;97538;-57
2021/01/10 09:59:55;;;;;;;59.13;36.77;;;9.50;99.30;;;10.76;52.55;102093.53;4978235;28;98700;-55
2021/01/10 10:02:30;;;;;;;44.57;28.53;;;9.50;99.40;;;10.88;52.60;102088.06;4979375;28;101184;-58
2021/01/10 10:05:07;;;;;;;41.03;26.10;;;9.60;99.40;;;11.11;51.73;102092.13;4977524;28;97107;-58
2021/01/10 10:07:38;;;;;;;35.43;25.20;;;9.80;99.10;;;10.85;51.80;102089.88;4986021;28;97072;-58
2021/01/10 10:10:17;;;;;;;36.43;24.77;;;9.60;99.10;;;10.85;52.71;102084.59;4971262;28;97447;-58
2021/01/10 10:12:53;;;;;;;64.07;38.00;;;9.60;99.60;;;11.05;52.27;102089.59;4987045;28;100982;-59
2021/01/10 10:15:20;;;;;;;19.03;14.10;;;9.80;99.90;;;11.39;51.84;102082.00;4972769;28;97337;-56